Airfield :







YOU CAN JOIN US ON...

 
LOGIN :

Register | Disclaimer

   EN    FR    IT 

 









Legend :    VFR   Marginal VFR   IFR   Intensive IFR   Very Intensive IFR
Visi :
Ceiling :
>= 8 km
>= 3000ft
5 to 8 km
1000 to 3000 ft
1500m to 5 km
500 to 1000 ft
800 to 1500m
200 to 500 ft
< 800m
< 200 ft
Symbols :   Thunderstorms  Fog  Heavy snow  Heavy precipitations  Wind > 20 kt







- Airport Elevation : 241 ft
- IATA code : CEF


KCEF - Westover ARB/Metropolitan

CURRENT METAR :
  • 211056Z 29014G23KT 10SM SCT040 SCT150 12/04 A2981 RMK AO2A SLP100 T01200037

EXPIRED METARs :
  • 210956Z AUTO 29016G21KT 10SM CLR 11/04 A2980 RMK AO2 PK WND 29029/08 SLP096 T01140037
  • 210856Z AUTO 29017G23KT 10SM CLR 12/04 A2978 RMK AO2 PK WND 31033/0758 SLP089 T01180036 50008
  • 210756Z AUTO 30017KT 10SM CLR 12/04 A2979 RMK AO2 PK WND 31035/15 SLP093 T01240036

TAF TAF KCEF
Valid from the 21 at 10:00 until the 22 at 16:00 UTC


211000Z 2110/2216 30015G25KT 9999 SCT050 520004 QNH2980INS
TEMPO 2110/2124 30020G35KT 530006
BECMG 2200/2201 30012KT 9999 FEW050 520102 QNH2997INS
BECMG 2210/2211 34015G25KT 9999 FEW040 520004 QNH3010INS TX19/2120Z TN08/2210Z
KZBW FIR / North America



MET'MAP, your aeronautical weather chart ! - Copyright ORBIFLY December 2007 - Disclaimer

ORBIFLY MET'MAP TEAM :

Programming & Development : Alexandra Zaïnal
Concept & Development : Baudouin d'Aumeries
Co-Development & Prog : Marc-Olivier Méhu
Technical & hardware support : Manuel Goepfert

Contact : metmap@orbifly.com




SOURCES & CREDITS :

   NOAA